sensor_id;sensor_type;location;lat;lon;timestamp;temperature;humidity
43949;DHT22;29429;51.074;13.764;2022-09-12T00:01:17;14.60;99.90
43949;DHT22;29429;51.074;13.764;2022-09-12T00:03:46;14.70;99.90
43949;DHT22;29429;51.074;13.764;2022-09-12T00:06:20;14.70;99.90
43949;DHT22;29429;51.074;13.764;2022-09-12T00:08:50;14.60;99.90
43949;DHT22;29429;51.074;13.764;2022-09-12T00:11:21;14.60;99.90
43949;DHT22;29429;51.074;13.764;2022-09-12T00:13:48;14.50;99.90
43949;DHT22;29429;51.074;13.764;2022-09-12T00:16:21;14.40;99.90
43949;DHT22;29429;51.074;13.764;2022-09-12T00:18:50;14.50;99.90
43949;DHT22;29429;51.074;13.764;2022-09-12T00:21:20;14.50;99.90
43949;DHT22;29429;51.074;13.764;2022-09-12T00:23:48;14.60;99.90
43949;DHT22;29429;51.074;13.764;2022-09-12T00:26:16;14.70;99.90
43949;DHT22;29429;51.074;13.764;2022-09-12T00:28:45;14.70;99.90
43949;DHT22;29429;51.074;13.764;2022-09-12T00:31:15;14.60;99.90
43949;DHT22;29429;51.074;13.764;2022-09-12T00:33:44;14.60;99.90
43949;DHT22;29429;51.074;13.764;2022-09-12T00:36:14;14.70;99.90
43949;DHT22;29429;51.074;13.764;2022-09-12T00:38:44;14.60;99.90
43949;DHT22;29429;51.074;13.764;2022-09-12T00:41:25;14.70;99.90
43949;DHT22;29429;51.074;13.764;2022-09-12T00:43:56;14.70;99.90
43949;DHT22;29429;51.074;13.764;2022-09-12T00:47:02;14.70;99.90
43949;DHT22;29429;51.074;13.764;2022-09-12T00:49:42;14.60;99.90
43949;DHT22;29429;51.074;13.764;2022-09-12T00:55:14;14.60;99.90
43949;DHT22;29429;51.074;13.764;2022-09-12T00:58:09;14.50;99.90
43949;DHT22;29429;51.074;13.764;2022-09-12T01:00:40;14.60;99.90
43949;DHT22;29429;51.074;13.764;2022-09-12T01:03:12;14.40;99.90
43949;DHT22;29429;51.074;13.764;2022-09-12T01:05:46;14.40;99.90
43949;DHT22;29429;51.074;13.764;2022-09-12T01:08:26;14.40;99.90
43949;DHT22;29429;51.074;13.764;2022-09-12T01:10:56;14.30;99.90
43949;DHT22;29429;51.074;13.764;2022-09-12T01:13:23;14.30;99.90
43949;DHT22;29429;51.074;13.764;2022-09-12T01:15:51;14.10;99.90
43949;DHT22;29429;51.074;13.764;2022-09-12T01:18:28;14.10;99.90
43949;DHT22;29429;51.074;13.764;2022-09-12T01:21:24;14.00;99.90
43949;DHT22;29429;51.074;13.764;2022-09-12T01:39:04;13.80;99.90
43949;DHT22;29429;51.074;13.764;2022-09-12T01:47:39;13.80;99.90
43949;DHT22;29429;51.074;13.764;2022-09-12T01:50:14;13.90;99.90
43949;DHT22;29429;51.074;13.764;2022-09-12T01:52:51;13.90;99.90
43949;DHT22;29429;51.074;13.764;2022-09-12T01:58:07;13.90;99.90
43949;DHT22;29429;51.074;13.764;2022-09-12T02:01:08;13.90;99.90
43949;DHT22;29429;51.074;13.764;2022-09-12T02:09:10;13.90;99.90
43949;DHT22;29429;51.074;13.764;2022-09-12T02:11:45;13.90;99.90
43949;DHT22;29429;51.074;13.764;2022-09-12T02:14:22;13.90;99.90
43949;DHT22;29429;51.074;13.764;2022-09-12T02:17:14;13.80;99.90
43949;DHT22;29429;51.074;13.764;2022-09-12T02:19:50;13.90;99.90
43949;DHT22;29429;51.074;13.764;2022-09-12T02:22:26;13.90;99.90
43949;DHT22;29429;51.074;13.764;2022-09-12T02:24:58;13.90;99.90
43949;DHT22;29429;51.074;13.764;2022-09-12T02:27:34;13.90;99.90
43949;DHT22;29429;51.074;13.764;2022-09-12T02:30:13;13.90;99.90
43949;DHT22;29429;51.074;13.764;2022-09-12T02:32:52;13.90;99.90
43949;DHT22;29429;51.074;13.764;2022-09-12T02:35:45;13.80;99.90
43949;DHT22;29429;51.074;13.764;2022-09-12T02:38:36;13.80;99.90
43949;DHT22;29429;51.074;13.764;2022-09-12T02:41:05;13.80;99.90
43949;DHT22;29429;51.074;13.764;2022-09-12T02:43:32;13.80;99.90
43949;DHT22;29429;51.074;13.764;2022-09-12T02:46:00;13.70;99.90
43949;DHT22;29429;51.074;13.764;2022-09-12T02:48:30;13.80;99.90
43949;DHT22;29429;51.074;13.764;2022-09-12T02:51:01;13.70;99.90
43949;DHT22;29429;51.074;13.764;2022-09-12T02:53:28;13.70;99.90
43949;DHT22;29429;51.074;13.764;2022-09-12T02:55:56;13.70;99.90
43949;DHT22;29429;51.074;13.764;2022-09-12T02:58:26;13.70;99.90
43949;DHT22;29429;51.074;13.764;2022-09-12T03:01:11;13.70;99.90
43949;DHT22;29429;51.074;13.764;2022-09-12T03:04:09;13.70;99.90
43949;DHT22;29429;51.074;13.764;2022-09-12T03:10:23;13.60;99.90
43949;DHT22;29429;51.074;13.764;2022-09-12T03:21:55;13.70;99.90
43949;DHT22;29429;51.074;13.764;2022-09-12T03:24:34;13.60;99.90
43949;DHT22;29429;51.074;13.764;2022-09-12T03:27:09;13.60;99.90
43949;DHT22;29429;51.074;13.764;2022-09-12T03:29:57;13.60;99.90
43949;DHT22;29429;51.074;13.764;2022-09-12T03:32:46;13.60;99.90
43949;DHT22;29429;51.074;13.764;2022-09-12T03:35:17;13.60;99.90
43949;DHT22;29429;51.074;13.764;2022-09-12T03:37:49;13.60;99.90
43949;DHT22;29429;51.074;13.764;2022-09-12T03:40:18;13.60;99.90
43949;DHT22;29429;51.074;13.764;2022-09-12T03:42:45;13.60;99.90
43949;DHT22;29429;51.074;13.764;2022-09-12T03:45:12;13.70;99.90
43949;DHT22;29429;51.074;13.764;2022-09-12T03:47:41;13.70;99.90
43949;DHT22;29429;51.074;13.764;2022-09-12T03:50:08;13.70;99.90
43949;DHT22;29429;51.074;13.764;2022-09-12T03:52:36;13.70;99.90
43949;DHT22;29429;51.074;13.764;2022-09-12T03:55:03;13.70;99.90
43949;DHT22;29429;51.074;13.764;2022-09-12T03:57:31;13.70;99.90
43949;DHT22;29429;51.074;13.764;2022-09-12T03:59:58;13.70;99.90
43949;DHT22;29429;51.074;13.764;2022-09-12T04:02:24;13.70;99.90
43949;DHT22;29429;51.074;13.764;2022-09-12T04:04:51;13.60;99.90
43949;DHT22;29429;51.074;13.764;2022-09-12T04:07:19;13.50;99.90
43949;DHT22;29429;51.074;13.764;2022-09-12T04:09:46;13.70;99.90
43949;DHT22;29429;51.074;13.764;2022-09-12T04:12:12;13.50;99.90
43949;DHT22;29429;51.074;13.764;2022-09-12T04:15:05;13.40;99.90
43949;DHT22;29429;51.074;13.764;2022-09-12T04:17:34;13.50;99.90
43949;DHT22;29429;51.074;13.764;2022-09-12T04:20:01;13.50;99.90
43949;DHT22;29429;51.074;13.764;2022-09-12T04:22:28;13.50;99.90
43949;DHT22;29429;51.074;13.764;2022-09-12T04:24:57;13.60;99.90
43949;DHT22;29429;51.074;13.764;2022-09-12T04:27:24;13.50;99.90
43949;DHT22;29429;51.074;13.764;2022-09-12T04:29:51;13.50;99.90
43949;DHT22;29429;51.074;13.764;2022-09-12T04:32:20;13.50;99.90
43949;DHT22;29429;51.074;13.764;2022-09-12T04:34:48;13.40;99.90
43949;DHT22;29429;51.074;13.764;2022-09-12T04:37:15;13.50;99.90
43949;DHT22;29429;51.074;13.764;2022-09-12T04:39:42;13.50;99.90
43949;DHT22;29429;51.074;13.764;2022-09-12T04:42:09;13.50;99.90
43949;DHT22;29429;51.074;13.764;2022-09-12T04:44:36;13.50;99.90
43949;DHT22;29429;51.074;13.764;2022-09-12T04:47:03;13.50;99.90
43949;DHT22;29429;51.074;13.764;2022-09-12T04:49:30;13.50;99.90
43949;DHT22;29429;51.074;13.764;2022-09-12T04:51:57;13.50;99.90
43949;DHT22;29429;51.074;13.764;2022-09-12T04:54:25;13.50;99.90
43949;DHT22;29429;51.074;13.764;2022-09-12T04:56:52;13.50;99.90
43949;DHT22;29429;51.074;13.764;2022-09-12T04:59:21;13.40;99.90
43949;DHT22;29429;51.074;13.764;2022-09-12T05:01:49;13.50;99.90
43949;DHT22;29429;51.074;13.764;2022-09-12T05:04:16;13.60;99.90
43949;DHT22;29429;51.074;13.764;2022-09-12T05:06:48;13.60;99.90
43949;DHT22;29429;51.074;13.764;2022-09-12T05:09:24;13.60;99.90
43949;DHT22;29429;51.074;13.764;2022-09-12T05:11:52;13.70;99.90
43949;DHT22;29429;51.074;13.764;2022-09-12T05:14:34;13.70;99.90
43949;DHT22;29429;51.074;13.764;2022-09-12T05:17:02;13.80;99.90
43949;DHT22;29429;51.074;13.764;2022-09-12T05:19:31;13.80;99.90
43949;DHT22;29429;51.074;13.764;2022-09-12T05:22:00;13.80;99.90
43949;DHT22;29429;51.074;13.764;2022-09-12T05:24:27;13.80;99.90
43949;DHT22;29429;51.074;13.764;2022-09-12T05:26:54;13.80;99.90
43949;DHT22;29429;51.074;13.764;2022-09-12T05:29:21;13.90;99.90
43949;DHT22;29429;51.074;13.764;2022-09-12T05:31:48;13.90;99.90
43949;DHT22;29429;51.074;13.764;2022-09-12T05:34:18;13.90;99.90
43949;DHT22;29429;51.074;13.764;2022-09-12T05:36:49;13.90;99.90
43949;DHT22;29429;51.074;13.764;2022-09-12T05:39:16;14.20;99.90
43949;DHT22;29429;51.074;13.764;2022-09-12T05:41:44;14.10;99.90
43949;DHT22;29429;51.074;13.764;2022-09-12T05:44:12;14.10;99.90
43949;DHT22;29429;51.074;13.764;2022-09-12T05:46:55;14.10;99.90
43949;DHT22;29429;51.074;13.764;2022-09-12T05:49:23;14.20;99.90
43949;DHT22;29429;51.074;13.764;2022-09-12T05:51:50;14.20;99.90
43949;DHT22;29429;51.074;13.764;2022-09-12T05:54:17;14.20;99.90
43949;DHT22;29429;51.074;13.764;2022-09-12T05:56:46;14.20;99.90
43949;DHT22;29429;51.074;13.764;2022-09-12T05:59:18;14.20;99.90
43949;DHT22;29429;51.074;13.764;2022-09-12T06:01:47;14.30;99.90
43949;DHT22;29429;51.074;13.764;2022-09-12T06:04:15;14.30;99.90
43949;DHT22;29429;51.074;13.764;2022-09-12T06:06:43;14.40;99.90
43949;DHT22;29429;51.074;13.764;2022-09-12T06:09:12;14.40;99.90
43949;DHT22;29429;51.074;13.764;2022-09-12T06:11:41;14.40;99.90
43949;DHT22;29429;51.074;13.764;2022-09-12T06:14:11;14.40;99.90
43949;DHT22;29429;51.074;13.764;2022-09-12T06:16:41;14.50;99.90
43949;DHT22;29429;51.074;13.764;2022-09-12T06:19:14;14.50;99.90
43949;DHT22;29429;51.074;13.764;2022-09-12T06:21:46;14.50;99.90
43949;DHT22;29429;51.074;13.764;2022-09-12T06:24:16;14.50;99.90
43949;DHT22;29429;51.074;13.764;2022-09-12T06:26:45;14.60;99.90
43949;DHT22;29429;51.074;13.764;2022-09-12T06:29:13;14.60;99.90
43949;DHT22;29429;51.074;13.764;2022-09-12T06:31:42;14.70;99.90
43949;DHT22;29429;51.074;13.764;2022-09-12T06:34:11;14.80;99.90
43949;DHT22;29429;51.074;13.764;2022-09-12T06:36:41;15.10;99.90
43949;DHT22;29429;51.074;13.764;2022-09-12T06:39:12;15.00;99.90
43949;DHT22;29429;51.074;13.764;2022-09-12T06:41:44;15.00;99.90
43949;DHT22;29429;51.074;13.764;2022-09-12T06:44:13;15.00;99.90
43949;DHT22;29429;51.074;13.764;2022-09-12T06:46:50;15.00;99.90
43949;DHT22;29429;51.074;13.764;2022-09-12T06:49:19;15.10;99.90
43949;DHT22;29429;51.074;13.764;2022-09-12T06:51:47;15.10;99.90
43949;DHT22;29429;51.074;13.764;2022-09-12T06:54:15;15.20;99.90
43949;DHT22;29429;51.074;13.764;2022-09-12T06:56:43;15.30;99.90
43949;DHT22;29429;51.074;13.764;2022-09-12T06:59:10;15.30;99.90
43949;DHT22;29429;51.074;13.764;2022-09-12T07:01:38;15.40;99.90
43949;DHT22;29429;51.074;13.764;2022-09-12T07:04:10;15.40;99.90
43949;DHT22;29429;51.074;13.764;2022-09-12T07:06:40;15.40;99.90
43949;DHT22;29429;51.074;13.764;2022-09-12T07:09:13;15.40;99.90
43949;DHT22;29429;51.074;13.764;2022-09-12T07:11:44;15.40;99.90
43949;DHT22;29429;51.074;13.764;2022-09-12T07:14:13;15.50;99.90
43949;DHT22;29429;51.074;13.764;2022-09-12T07:16:45;15.30;99.90
43949;DHT22;29429;51.074;13.764;2022-09-12T07:19:17;15.40;99.90
43949;DHT22;29429;51.074;13.764;2022-09-12T07:21:47;15.50;99.90
43949;DHT22;29429;51.074;13.764;2022-09-12T07:24:14;15.40;99.90
43949;DHT22;29429;51.074;13.764;2022-09-12T07:26:41;15.50;99.90
43949;DHT22;29429;51.074;13.764;2022-09-12T07:29:13;15.50;99.90
43949;DHT22;29429;51.074;13.764;2022-09-12T07:32:04;15.60;99.90
43949;DHT22;29429;51.074;13.764;2022-09-12T07:34:32;15.60;99.90
43949;DHT22;29429;51.074;13.764;2022-09-12T07:36:59;15.80;99.90
43949;DHT22;29429;51.074;13.764;2022-09-12T07:39:27;16.00;99.90
43949;DHT22;29429;51.074;13.764;2022-09-12T07:42:01;15.90;99.90
43949;DHT22;29429;51.074;13.764;2022-09-12T07:44:28;16.10;99.90
43949;DHT22;29429;51.074;13.764;2022-09-12T07:46:59;16.20;99.90
43949;DHT22;29429;51.074;13.764;2022-09-12T07:49:33;16.20;99.90
43949;DHT22;29429;51.074;13.764;2022-09-12T07:52:08;16.10;99.90
43949;DHT22;29429;51.074;13.764;2022-09-12T07:54:36;16.10;99.90
43949;DHT22;29429;51.074;13.764;2022-09-12T07:57:03;16.00;99.90
43949;DHT22;29429;51.074;13.764;2022-09-12T07:59:30;16.20;99.90
43949;DHT22;29429;51.074;13.764;2022-09-12T08:02:17;16.30;99.90
43949;DHT22;29429;51.074;13.764;2022-09-12T08:04:44;16.40;99.90
43949;DHT22;29429;51.074;13.764;2022-09-12T08:07:12;16.30;99.90
43949;DHT22;29429;51.074;13.764;2022-09-12T08:09:40;16.30;99.90
43949;DHT22;29429;51.074;13.764;2022-09-12T08:12:07;16.20;99.90
43949;DHT22;29429;51.074;13.764;2022-09-12T08:14:34;16.30;99.90
43949;DHT22;29429;51.074;13.764;2022-09-12T08:17:01;16.20;99.90
43949;DHT22;29429;51.074;13.764;2022-09-12T08:19:28;16.20;99.90
43949;DHT22;29429;51.074;13.764;2022-09-12T08:21:55;16.20;99.90
43949;DHT22;29429;51.074;13.764;2022-09-12T08:24:22;16.30;99.90
43949;DHT22;29429;51.074;13.764;2022-09-12T08:26:50;16.40;99.90
43949;DHT22;29429;51.074;13.764;2022-09-12T08:29:24;16.40;99.90
43949;DHT22;29429;51.074;13.764;2022-09-12T08:31:51;16.40;99.90
43949;DHT22;29429;51.074;13.764;2022-09-12T08:34:23;16.40;99.90
43949;DHT22;29429;51.074;13.764;2022-09-12T08:36:50;16.30;99.90
43949;DHT22;29429;51.074;13.764;2022-09-12T08:39:20;16.30;99.90
43949;DHT22;29429;51.074;13.764;2022-09-12T08:42:01;16.30;99.90
43949;DHT22;29429;51.074;13.764;2022-09-12T08:47:42;16.30;99.90
43949;DHT22;29429;51.074;13.764;2022-09-12T08:50:15;16.30;99.90
43949;DHT22;29429;51.074;13.764;2022-09-12T08:53:02;16.30;99.90
43949;DHT22;29429;51.074;13.764;2022-09-12T08:55:39;16.30;99.90
43949;DHT22;29429;51.074;13.764;2022-09-12T08:58:15;16.30;99.90
43949;DHT22;29429;51.074;13.764;2022-09-12T09:12:43;17.40;99.90
43949;DHT22;29429;51.074;13.764;2022-09-12T09:15:43;17.40;99.90
43949;DHT22;29429;51.074;13.764;2022-09-12T09:18:29;17.30;99.90
43949;DHT22;29429;51.074;13.764;2022-09-12T09:21:04;17.30;99.90
43949;DHT22;29429;51.074;13.764;2022-09-12T09:23:44;17.40;99.90
43949;DHT22;29429;51.074;13.764;2022-09-12T09:26:20;17.40;99.90
43949;DHT22;29429;51.074;13.764;2022-09-12T09:29:00;17.30;99.90
43949;DHT22;29429;51.074;13.764;2022-09-12T09:31:36;17.20;99.90
43949;DHT22;29429;51.074;13.764;2022-09-12T09:34:30;17.20;99.90
43949;DHT22;29429;51.074;13.764;2022-09-12T09:42:44;17.60;99.90
43949;DHT22;29429;51.074;13.764;2022-09-12T09:45:31;17.70;99.90
43949;DHT22;29429;51.074;13.764;2022-09-12T09:48:24;18.10;99.90
43949;DHT22;29429;51.074;13.764;2022-09-12T09:50:59;18.40;99.90
43949;DHT22;29429;51.074;13.764;2022-09-12T09:53:44;18.80;99.90
43949;DHT22;29429;51.074;13.764;2022-09-12T09:56:26;19.20;99.90
43949;DHT22;29429;51.074;13.764;2022-09-12T09:58:56;19.40;99.90
43949;DHT22;29429;51.074;13.764;2022-09-12T10:01:25;19.40;99.90
43949;DHT22;29429;51.074;13.764;2022-09-12T10:03:54;19.40;99.90
43949;DHT22;29429;51.074;13.764;2022-09-12T10:06:31;19.30;99.90
43949;DHT22;29429;51.074;13.764;2022-09-12T10:11:41;19.00;99.90
43949;DHT22;29429;51.074;13.764;2022-09-12T10:17:30;18.40;99.90
43949;DHT22;29429;51.074;13.764;2022-09-12T10:23:20;18.10;99.90
43949;DHT22;29429;51.074;13.764;2022-09-12T10:25:59;18.30;99.90
43949;DHT22;29429;51.074;13.764;2022-09-12T10:28:36;18.40;99.90
43949;DHT22;29429;51.074;13.764;2022-09-12T10:31:12;18.50;99.90
43949;DHT22;29429;51.074;13.764;2022-09-12T10:33:45;18.50;99.90
43949;DHT22;29429;51.074;13.764;2022-09-12T10:36:19;18.60;99.90
43949;DHT22;29429;51.074;13.764;2022-09-12T10:38:52;18.80;99.90
43949;DHT22;29429;51.074;13.764;2022-09-12T10:41:23;18.90;99.90
43949;DHT22;29429;51.074;13.764;2022-09-12T10:43:50;19.00;99.90
43949;DHT22;29429;51.074;13.764;2022-09-12T10:48:46;19.30;99.90
43949;DHT22;29429;51.074;13.764;2022-09-12T10:53:53;19.60;99.90
43949;DHT22;29429;51.074;13.764;2022-09-12T11:01:36;19.70;99.90
43949;DHT22;29429;51.074;13.764;2022-09-12T11:10:27;19.90;99.90
43949;DHT22;29429;51.074;13.764;2022-09-12T11:25:22;20.90;99.90
43949;DHT22;29429;51.074;13.764;2022-09-12T11:31:36;21.00;99.90
43949;DHT22;29429;51.074;13.764;2022-09-12T11:34:10;20.90;99.90
43949;DHT22;29429;51.074;13.764;2022-09-12T11:37:04;20.70;99.90
43949;DHT22;29429;51.074;13.764;2022-09-12T11:40:04;20.60;99.90
43949;DHT22;29429;51.074;13.764;2022-09-12T11:42:48;20.40;99.90
43949;DHT22;29429;51.074;13.764;2022-09-12T11:45:34;20.10;99.90
43949;DHT22;29429;51.074;13.764;2022-09-12T11:48:32;19.90;99.90
43949;DHT22;29429;51.074;13.764;2022-09-12T11:51:18;19.70;99.90
43949;DHT22;29429;51.074;13.764;2022-09-12T11:54:01;19.60;99.90
43949;DHT22;29429;51.074;13.764;2022-09-12T11:56:39;19.50;99.90
43949;DHT22;29429;51.074;13.764;2022-09-12T12:01:51;19.50;99.90
43949;DHT22;29429;51.074;13.764;2022-09-12T12:04:31;19.60;99.90
43949;DHT22;29429;51.074;13.764;2022-09-12T12:07:08;19.80;99.90
43949;DHT22;29429;51.074;13.764;2022-09-12T12:09:49;19.90;99.90
43949;DHT22;29429;51.074;13.764;2022-09-12T12:12:24;20.00;99.90
43949;DHT22;29429;51.074;13.764;2022-09-12T12:14:55;20.10;99.90
43949;DHT22;29429;51.074;13.764;2022-09-12T12:17:24;20.00;99.90
43949;DHT22;29429;51.074;13.764;2022-09-12T12:20:02;20.00;99.90
43949;DHT22;29429;51.074;13.764;2022-09-12T12:22:33;20.10;99.90
43949;DHT22;29429;51.074;13.764;2022-09-12T12:25:03;20.30;99.90
43949;DHT22;29429;51.074;13.764;2022-09-12T12:27:51;20.50;99.90
43949;DHT22;29429;51.074;13.764;2022-09-12T12:33:00;20.80;99.90
43949;DHT22;29429;51.074;13.764;2022-09-12T12:35:42;20.80;99.90
43949;DHT22;29429;51.074;13.764;2022-09-12T12:38:34;20.80;99.90
43949;DHT22;29429;51.074;13.764;2022-09-12T12:43:54;21.10;99.90
43949;DHT22;29429;51.074;13.764;2022-09-12T12:46:25;21.20;99.90
43949;DHT22;29429;51.074;13.764;2022-09-12T12:54:32;21.10;99.90
43949;DHT22;29429;51.074;13.764;2022-09-12T13:00:07;21.10;99.20
43949;DHT22;29429;51.074;13.764;2022-09-12T13:05:43;21.10;99.00
43949;DHT22;29429;51.074;13.764;2022-09-12T13:11:07;21.20;99.90
43949;DHT22;29429;51.074;13.764;2022-09-12T13:13:51;21.20;98.10
43949;DHT22;29429;51.074;13.764;2022-09-12T13:16:35;21.10;99.00
43949;DHT22;29429;51.074;13.764;2022-09-12T13:19:12;20.90;98.50
43949;DHT22;29429;51.074;13.764;2022-09-12T13:21:59;20.80;98.20
43949;DHT22;29429;51.074;13.764;2022-09-12T13:24:46;20.80;99.30
43949;DHT22;29429;51.074;13.764;2022-09-12T13:27:24;20.80;99.90
43949;DHT22;29429;51.074;13.764;2022-09-12T13:30:10;20.70;98.30
43949;DHT22;29429;51.074;13.764;2022-09-12T13:32:41;20.60;98.40
43949;DHT22;29429;51.074;13.764;2022-09-12T13:35:21;20.50;98.90
43949;DHT22;29429;51.074;13.764;2022-09-12T13:38:25;20.50;99.50
43949;DHT22;29429;51.074;13.764;2022-09-12T13:41:19;20.50;98.30
43949;DHT22;29429;51.074;13.764;2022-09-12T13:44:20;20.50;98.40
43949;DHT22;29429;51.074;13.764;2022-09-12T13:46:49;20.60;99.30
43949;DHT22;29429;51.074;13.764;2022-09-12T13:49:30;20.60;99.90
43949;DHT22;29429;51.074;13.764;2022-09-12T13:52:16;20.70;98.40
43949;DHT22;29429;51.074;13.764;2022-09-12T13:54:49;20.60;97.80
43949;DHT22;29429;51.074;13.764;2022-09-12T13:57:40;20.50;98.70
43949;DHT22;29429;51.074;13.764;2022-09-12T14:00:16;20.50;97.90
43949;DHT22;29429;51.074;13.764;2022-09-12T14:02:48;20.50;98.50
43949;DHT22;29429;51.074;13.764;2022-09-12T14:05:22;20.40;98.30
43949;DHT22;29429;51.074;13.764;2022-09-12T14:07:51;20.40;97.80
43949;DHT22;29429;51.074;13.764;2022-09-12T14:13:10;20.40;97.70
43949;DHT22;29429;51.074;13.764;2022-09-12T14:15:44;20.20;97.40
43949;DHT22;29429;51.074;13.764;2022-09-12T14:20:51;20.30;98.40
43949;DHT22;29429;51.074;13.764;2022-09-12T14:23:30;20.30;98.40
43949;DHT22;29429;51.074;13.764;2022-09-12T14:26:03;20.40;98.70
43949;DHT22;29429;51.074;13.764;2022-09-12T14:28:32;20.30;98.50
43949;DHT22;29429;51.074;13.764;2022-09-12T14:31:28;20.30;98.40
43949;DHT22;29429;51.074;13.764;2022-09-12T14:34:12;20.30;98.50
43949;DHT22;29429;51.074;13.764;2022-09-12T14:36:46;20.30;99.10
43949;DHT22;29429;51.074;13.764;2022-09-12T14:39:38;20.30;98.00
43949;DHT22;29429;51.074;13.764;2022-09-12T14:42:12;20.20;97.40
43949;DHT22;29429;51.074;13.764;2022-09-12T14:47:25;20.20;96.90
43949;DHT22;29429;51.074;13.764;2022-09-12T14:49:56;20.20;97.40
43949;DHT22;29429;51.074;13.764;2022-09-12T14:52:25;20.20;96.90
43949;DHT22;29429;51.074;13.764;2022-09-12T14:55:28;20.20;97.00
43949;DHT22;29429;51.074;13.764;2022-09-12T14:58:26;20.20;96.90
43949;DHT22;29429;51.074;13.764;2022-09-12T15:03:35;20.10;96.80
43949;DHT22;29429;51.074;13.764;2022-09-12T15:06:30;20.10;96.90
43949;DHT22;29429;51.074;13.764;2022-09-12T15:09:11;20.10;97.90
43949;DHT22;29429;51.074;13.764;2022-09-12T15:11:39;20.10;98.80
43949;DHT22;29429;51.074;13.764;2022-09-12T15:14:11;20.20;99.60
43949;DHT22;29429;51.074;13.764;2022-09-12T15:16:40;20.10;99.70
43949;DHT22;29429;51.074;13.764;2022-09-12T15:19:07;20.10;99.20
43949;DHT22;29429;51.074;13.764;2022-09-12T15:21:34;20.10;99.90
43949;DHT22;29429;51.074;13.764;2022-09-12T15:24:01;20.10;99.90
43949;DHT22;29429;51.074;13.764;2022-09-12T15:26:29;20.10;99.90
43949;DHT22;29429;51.074;13.764;2022-09-12T15:28:57;20.10;99.90
43949;DHT22;29429;51.074;13.764;2022-09-12T15:31:29;20.10;99.90
43949;DHT22;29429;51.074;13.764;2022-09-12T15:33:59;20.00;99.90
43949;DHT22;29429;51.074;13.764;2022-09-12T15:36:27;20.00;99.90
43949;DHT22;29429;51.074;13.764;2022-09-12T15:38:55;19.90;99.90
43949;DHT22;29429;51.074;13.764;2022-09-12T15:41:28;19.90;99.90
43949;DHT22;29429;51.074;13.764;2022-09-12T15:43:58;19.90;99.90
43949;DHT22;29429;51.074;13.764;2022-09-12T15:46:25;19.90;99.90
43949;DHT22;29429;51.074;13.764;2022-09-12T15:48:52;19.80;99.90
43949;DHT22;29429;51.074;13.764;2022-09-12T15:51:20;19.80;99.90
43949;DHT22;29429;51.074;13.764;2022-09-12T15:53:49;19.80;99.90
43949;DHT22;29429;51.074;13.764;2022-09-12T15:56:18;19.70;99.90
43949;DHT22;29429;51.074;13.764;2022-09-12T15:58:47;19.60;99.90
43949;DHT22;29429;51.074;13.764;2022-09-12T16:01:26;19.60;99.90
43949;DHT22;29429;51.074;13.764;2022-09-12T16:03:54;19.70;99.90
43949;DHT22;29429;51.074;13.764;2022-09-12T16:06:21;19.50;99.90
43949;DHT22;29429;51.074;13.764;2022-09-12T16:08:49;19.40;99.90
43949;DHT22;29429;51.074;13.764;2022-09-12T16:11:20;19.30;99.90
43949;DHT22;29429;51.074;13.764;2022-09-12T16:13:53;19.30;99.90
43949;DHT22;29429;51.074;13.764;2022-09-12T16:16:21;19.20;99.90
43949;DHT22;29429;51.074;13.764;2022-09-12T16:18:48;19.10;99.90
43949;DHT22;29429;51.074;13.764;2022-09-12T16:21:15;19.10;99.90
43949;DHT22;29429;51.074;13.764;2022-09-12T16:23:43;19.00;99.90
43949;DHT22;29429;51.074;13.764;2022-09-12T16:26:11;18.90;99.90
43949;DHT22;29429;51.074;13.764;2022-09-12T16:28:38;18.90;99.90
43949;DHT22;29429;51.074;13.764;2022-09-12T16:31:07;18.80;99.90
43949;DHT22;29429;51.074;13.764;2022-09-12T16:33:36;18.70;99.90
43949;DHT22;29429;51.074;13.764;2022-09-12T16:36:09;18.60;99.90
43949;DHT22;29429;51.074;13.764;2022-09-12T16:38:50;18.60;99.90
43949;DHT22;29429;51.074;13.764;2022-09-12T16:41:20;18.50;99.90
43949;DHT22;29429;51.074;13.764;2022-09-12T16:43:55;18.40;99.90
43949;DHT22;29429;51.074;13.764;2022-09-12T16:46:25;18.30;99.90
43949;DHT22;29429;51.074;13.764;2022-09-12T16:48:57;18.30;99.90
43949;DHT22;29429;51.074;13.764;2022-09-12T16:51:30;18.20;99.90
43949;DHT22;29429;51.074;13.764;2022-09-12T16:54:01;18.10;99.90
43949;DHT22;29429;51.074;13.764;2022-09-12T16:56:29;18.10;99.90
43949;DHT22;29429;51.074;13.764;2022-09-12T16:58:56;18.00;99.90
43949;DHT22;29429;51.074;13.764;2022-09-12T17:01:24;18.00;99.90
43949;DHT22;29429;51.074;13.764;2022-09-12T17:03:56;17.90;99.90
43949;DHT22;29429;51.074;13.764;2022-09-12T17:06:24;17.80;99.90
43949;DHT22;29429;51.074;13.764;2022-09-12T17:08:54;17.70;99.90
43949;DHT22;29429;51.074;13.764;2022-09-12T17:11:26;17.70;99.90
43949;DHT22;29429;51.074;13.764;2022-09-12T17:14:04;17.60;99.90
43949;DHT22;29429;51.074;13.764;2022-09-12T17:16:39;17.50;99.90
43949;DHT22;29429;51.074;13.764;2022-09-12T17:19:09;17.40;99.90
43949;DHT22;29429;51.074;13.764;2022-09-12T17:21:42;17.30;99.90
43949;DHT22;29429;51.074;13.764;2022-09-12T17:24:10;17.20;99.90
43949;DHT22;29429;51.074;13.764;2022-09-12T17:26:37;17.10;99.90
43949;DHT22;29429;51.074;13.764;2022-09-12T17:29:04;17.10;99.90
43949;DHT22;29429;51.074;13.764;2022-09-12T17:31:31;17.00;99.90
43949;DHT22;29429;51.074;13.764;2022-09-12T17:34:00;17.00;99.90
43949;DHT22;29429;51.074;13.764;2022-09-12T17:36:28;16.90;99.90
43949;DHT22;29429;51.074;13.764;2022-09-12T17:38:57;16.90;99.90
43949;DHT22;29429;51.074;13.764;2022-09-12T17:41:27;16.80;99.90
43949;DHT22;29429;51.074;13.764;2022-09-12T17:43:58;16.80;99.90
43949;DHT22;29429;51.074;13.764;2022-09-12T17:46:35;16.80;99.90
43949;DHT22;29429;51.074;13.764;2022-09-12T17:49:09;16.70;99.90
43949;DHT22;29429;51.074;13.764;2022-09-12T17:51:41;16.70;99.90
43949;DHT22;29429;51.074;13.764;2022-09-12T17:54:11;16.70;99.90
43949;DHT22;29429;51.074;13.764;2022-09-12T17:56:42;16.60;99.90
43949;DHT22;29429;51.074;13.764;2022-09-12T17:59:19;16.60;99.90
43949;DHT22;29429;51.074;13.764;2022-09-12T18:01:51;16.60;99.90
43949;DHT22;29429;51.074;13.764;2022-09-12T18:04:37;16.50;99.90
43949;DHT22;29429;51.074;13.764;2022-09-12T18:07:04;16.50;99.90
43949;DHT22;29429;51.074;13.764;2022-09-12T18:09:32;16.30;99.90
43949;DHT22;29429;51.074;13.764;2022-09-12T18:11:59;16.50;99.90
43949;DHT22;29429;51.074;13.764;2022-09-12T18:14:26;16.40;99.90